Time;durP1;ratioP1;P1;durP2;ratioP2;P2;SDS_P1;SDS_P2;PMS_P1;PMS_P2;Temp;Humidity;BMP_temperature;BMP_pressure;BME280_temperature;BME280_humidity;BME280_pressure;Samples;Min_cycle;Max_cycle;Signal;HPM_P1;HPM_P2
2022/07/23 00:00:49;;;;;;;15.48;9.68;;;;;;;20.30;79.27;101235.34;5114284;28;20027;-74
2022/07/23 00:03:15;;;;;;;13.25;9.68;;;;;;;20.29;78.96;101242.63;5113879;28;20028;-73
2022/07/23 00:05:41;;;;;;;13.70;9.10;;;;;;;20.30;79.02;101246.16;5113919;28;20032;-74
2022/07/23 00:08:07;;;;;;;10.73;8.30;;;;;;;20.29;78.97;101252.59;5114000;28;20036;-74
2022/07/23 00:10:33;;;;;;;16.38;10.23;;;;;;;20.27;79.11;101246.59;5115906;28;20063;-74
2022/07/23 00:12:58;;;;;;;14.27;9.38;;;;;;;20.25;79.12;101245.97;5115246;28;20036;-74
2022/07/23 00:15:24;;;;;;;14.38;9.57;;;;;;;20.07;79.13;101231.25;5113809;28;20034;-74
2022/07/23 00:17:50;;;;;;;12.90;9.90;;;;;;;20.22;78.95;101249.91;5113648;28;20122;-75
2022/07/23 00:20:16;;;;;;;15.65;9.02;;;;;;;20.22;79.25;101244.50;5113528;28;20061;-74
2022/07/23 00:22:47;;;;;;;20.02;11.07;;;;;;;20.23;79.39;101245.31;5113549;28;20541;-75
2022/07/23 00:25:12;;;;;;;13.85;9.80;;;;;;;20.20;79.40;101245.75;5114206;28;20080;-73
2022/07/23 00:27:38;;;;;;;13.35;9.27;;;;;;;20.18;79.98;101253.25;5117289;28;20043;-75
2022/07/23 00:30:04;;;;;;;15.63;9.10;;;;;;;20.11;80.37;101246.00;5113699;28;20032;-74
2022/07/23 00:32:30;;;;;;;17.38;9.13;;;;;;;20.08;80.06;101243.72;5113636;28;20558;-74
2022/07/23 00:34:55;;;;;;;11.23;9.02;;;;;;;20.07;80.23;101250.19;5113601;28;20035;-74
2022/07/23 00:37:21;;;;;;;12.40;8.80;;;;;;;20.06;80.65;101262.03;5113613;28;20084;-76
2022/07/23 00:39:47;;;;;;;13.05;9.82;;;;;;;19.93;80.63;101235.03;5113534;28;20080;-74
2022/07/23 00:42:12;;;;;;;13.80;9.35;;;;;;;19.92;80.83;101241.47;5118088;28;20067;-74
2022/07/23 00:44:38;;;;;;;12.05;8.55;;;;;;;19.99;81.01;101244.19;5113194;28;20050;-75
2022/07/23 00:47:28;;;;;;;12.15;9.50;;;;;;;19.96;81.09;101245.44;5113331;28;20103;-76
2022/07/23 00:49:54;;;;;;;12.02;8.60;;;;;;;19.97;81.15;101260.63;5113228;28;20035;-76
2022/07/23 00:52:20;;;;;;;14.85;9.75;;;;;;;19.96;81.26;101255.44;5112964;28;20039;-75
2022/07/23 00:54:45;;;;;;;16.08;9.10;;;;;;;19.89;81.38;101255.41;5113255;28;20441;-76
2022/07/23 00:57:11;;;;;;;12.25;9.25;;;;;;;19.86;81.74;101255.03;5119449;28;20532;-74
2022/07/23 00:59:38;;;;;;;15.15;9.18;;;;;;;19.86;81.79;101255.03;5112907;28;20524;-75
2022/07/23 01:02:04;;;;;;;18.27;10.13;;;;;;;19.85;81.96;101254.19;5112789;28;20035;-74
2022/07/23 01:04:29;;;;;;;16.50;10.07;;;;;;;19.85;82.05;101258.78;5112980;28;20139;-73
2022/07/23 01:06:55;;;;;;;16.05;9.57;;;;;;;19.82;82.35;101260.03;5111552;28;20126;-74
2022/07/23 01:09:21;;;;;;;12.15;9.73;;;;;;;19.78;82.38;101258.78;5112916;28;20059;-72
2022/07/23 01:11:46;;;;;;;13.10;10.02;;;;;;;19.78;82.40;101253.38;5117200;28;20590;-74
2022/07/23 01:14:14;;;;;;;14.50;10.95;;;;;;;19.74;82.40;101252.97;5094477;28;20031;-73
2022/07/23 01:16:41;;;;;;;15.82;9.85;;;;;;;19.75;82.37;101254.63;5112511;28;20122;-73
2022/07/23 01:19:08;;;;;;;17.48;11.25;;;;;;;19.76;82.43;101252.75;5112655;28;20035;-74
2022/07/23 01:21:40;;;;;;;14.98;10.80;;;;;;;19.79;82.17;101250.47;5111563;28;20028;-74
2022/07/23 01:24:06;;;;;;;10.77;9.35;;;;;;;19.80;82.28;101251.28;5112811;28;20059;-74
2022/07/23 01:26:32;;;;;;;14.10;10.38;;;;;;;19.75;82.00;101249.22;5115558;28;20089;-76
2022/07/23 01:28:57;;;;;;;16.80;11.07;;;;;;;19.76;82.08;101247.34;5111426;28;20031;-74
2022/07/23 01:31:23;;;;;;;13.10;9.27;;;;;;;19.79;82.17;101241.53;5112671;28;20127;-75
2022/07/23 01:33:49;;;;;;;14.48;9.82;;;;;;;19.78;81.69;101239.88;5112602;28;20138;-75
2022/07/23 01:36:15;;;;;;;12.07;9.82;;;;;;;19.84;81.76;101249.00;5112642;28;20055;-74
2022/07/23 01:38:43;;;;;;;16.08;9.25;;;;;;;19.83;81.59;101236.53;5111160;28;20038;-76
2022/07/23 01:41:08;;;;;;;14.60;10.05;;;;;;;19.86;81.14;101228.81;5113298;28;20032;-76
2022/07/23 01:43:34;;;;;;;13.27;9.80;;;;;;;19.94;81.12;101238.56;5112368;28;20027;-74
2022/07/23 01:45:59;;;;;;;11.45;10.15;;;;;;;19.91;81.02;101237.13;5112385;28;20027;-75
2022/07/23 01:48:26;;;;;;;19.25;10.48;;;;;;;19.86;81.11;101228.81;5112465;28;20040;-74
2022/07/23 01:50:52;;;;;;;13.52;10.85;;;;;;;19.84;80.98;101228.22;5094846;28;20031;-75
2022/07/23 01:53:17;;;;;;;15.05;11.40;;;;;;;19.93;81.13;101232.31;5113171;28;20043;-74
2022/07/23 01:55:43;;;;;;;18.08;11.35;;;;;;;19.98;81.18;101232.53;5123386;28;20032;-75
2022/07/23 01:58:08;;;;;;;20.73;11.52;;;;;;;19.95;80.89;101226.72;5124981;28;20035;-74
2022/07/23 02:00:34;;;;;;;17.52;10.75;;;;;;;20.00;80.78;101241.28;5127603;28;20110;-76
2022/07/23 02:03:00;;;;;;;12.85;10.57;;;;;;;20.03;80.41;101243.53;5124926;28;20057;-74
2022/07/23 02:05:28;;;;;;;18.13;11.35;;;;;;;20.03;80.56;101248.13;5122618;28;20052;-76
2022/07/23 02:07:54;;;;;;;14.38;11.35;;;;;;;20.03;80.91;101238.13;5116513;28;20039;-73
2022/07/23 02:10:21;;;;;;;17.35;12.00;;;;;;;20.06;81.34;101236.88;5118765;28;20085;-75
2022/07/23 02:12:47;;;;;;;17.25;10.57;;;;;;;20.07;81.14;101231.25;5120730;27;20534;-73
2022/07/23 02:15:12;;;;;;;20.58;10.60;;;;;;;19.85;80.78;101183.91;5116224;28;20118;-74
2022/07/23 02:17:38;;;;;;;13.25;10.75;;;;;;;20.13;80.50;101231.44;5115154;28;20651;-75
2022/07/23 02:20:06;;;;;;;17.40;11.32;;;;;;;20.17;80.30;101233.50;5116497;28;20504;-74
2022/07/23 02:22:32;;;;;;;13.63;10.00;;;;;;;20.18;80.15;101220.81;5116204;27;20043;-73
2022/07/23 02:24:57;;;;;;;14.80;10.45;;;;;;;20.26;80.01;101228.69;5115934;28;20035;-75
2022/07/23 02:27:23;;;;;;;15.20;10.65;;;;;;;20.28;79.91;101221.19;5120643;28;20041;-74
2022/07/23 02:29:49;;;;;;;16.65;11.25;;;;;;;20.30;80.30;101221.81;5114562;28;20031;-75
2022/07/23 02:32:14;;;;;;;12.93;11.50;;;;;;;20.34;80.36;101220.31;5115848;28;20084;-74
2022/07/23 02:34:40;;;;;;;17.27;11.18;;;;;;;20.30;80.32;101205.59;5115849;28;20040;-74
2022/07/23 02:37:08;;;;;;;13.50;11.18;;;;;;;20.38;80.14;101216.97;5115570;28;20066;-73
2022/07/23 02:39:35;;;;;;;19.95;10.73;;;;;;;20.38;80.00;101211.56;5115833;28;20410;-74
2022/07/23 02:42:01;;;;;;;14.20;10.80;;;;;;;20.45;79.97;101216.13;5122308;28;20142;-75
2022/07/23 02:44:27;;;;;;;18.33;11.23;;;;;;;20.44;79.74;101199.06;5114170;28;20451;-75
2022/07/23 02:46:52;;;;;;;19.25;11.38;;;;;;;20.48;79.70;101194.06;5115749;28;20088;-74
2022/07/23 02:49:19;;;;;;;16.05;10.18;;;;;;;20.46;79.75;101178.03;5115412;28;20050;-75
2022/07/23 02:51:44;;;;;;;15.02;9.90;;;;;;;20.55;79.63;101184.88;5115462;28;20031;-73
2022/07/23 02:54:10;;;;;;;11.68;9.57;;;;;;;20.60;79.59;101186.91;5115572;28;20031;-73
2022/07/23 02:56:35;;;;;;;24.67;10.75;;;;;;;20.64;79.16;101178.13;5117824;28;20106;-74
2022/07/23 02:59:01;;;;;;;13.90;9.65;;;;;;;20.68;78.95;101179.34;5116738;28;20066;-75
2022/07/23 03:01:26;;;;;;;17.45;10.43;;;;;;;20.79;78.77;101182.41;5114053;28;20118;-73
2022/07/23 03:03:52;;;;;;;13.10;9.32;;;;;;;20.85;78.25;101174.25;5115091;27;20491;-73
2022/07/23 03:06:17;;;;;;;14.82;9.90;;;;;;;20.88;77.72;101162.16;5115386;28;20046;-75
2022/07/23 03:08:43;;;;;;;16.65;10.57;;;;;;;21.29;76.81;101175.97;5114671;28;20608;-75
2022/07/23 03:11:10;;;;;;;12.70;10.70;;;;;;;22.43;73.19;101177.13;5115591;28;20107;-76
2022/07/23 03:13:37;;;;;;;14.55;10.48;;;;;;;23.83;68.13;101175.63;5117103;28;20118;-72
2022/07/23 03:16:03;;;;;;;15.93;10.52;;;;;;;24.86;64.12;101169.16;5128761;28;20051;-73
2022/07/23 03:18:29;;;;;;;15.98;10.68;;;;;;;25.60;62.50;101165.13;5128741;28;20418;-73
2022/07/23 03:20:54;;;;;;;12.63;10.35;;;;;;;26.21;60.68;101165.06;5122056;28;20042;-74
2022/07/23 03:23:20;;;;;;;11.93;9.35;;;;;;;26.78;58.73;101159.91;5115210;28;20043;-74
2022/07/23 03:25:48;;;;;;;11.48;9.23;;;;;;;27.25;56.60;101153.75;5115375;28;20036;-74
2022/07/23 03:28:17;;;;;;;12.95;9.38;;;;;;;27.70;55.58;101163.31;5119272;28;20093;-73
2022/07/23 03:30:46;;;;;;;11.73;8.50;;;;;;;28.01;53.67;101162.31;5115025;28;20035;-74
2022/07/23 03:33:17;;;;;;;21.90;9.52;;;;;;;28.15;52.94;101159.09;5117370;28;20053;-73
2022/07/23 03:35:44;;;;;;;12.38;9.13;;;;;;;28.13;52.06;101155.81;5124765;28;20031;-73
2022/07/23 03:38:35;;;;;;;10.85;8.23;;;;;;;27.21;54.92;101152.63;5125665;28;20094;-73
2022/07/23 03:41:01;;;;;;;13.07;8.88;;;;;;;26.41;57.89;101159.03;5122347;28;20048;-74
2022/07/23 03:43:26;;;;;;;13.27;8.23;;;;;;;25.67;58.63;101110.41;5118881;28;20114;-76
2022/07/23 03:45:52;;;;;;;14.18;9.60;;;;;;;25.28;61.18;101147.78;5114280;28;20122;-74
2022/07/23 03:48:17;;;;;;;12.32;8.13;;;;;;;24.93;62.57;101143.41;5114350;28;20028;-74
2022/07/23 03:50:43;;;;;;;12.63;9.25;;;;;;;24.59;64.44;101145.31;5114250;28;20043;-73
2022/07/23 03:53:08;;;;;;;15.88;9.23;;;;;;;24.40;64.33;101136.53;5113233;28;20031;-73
2022/07/23 03:55:34;;;;;;;12.25;7.75;;;;;;;24.21;64.91;101136.94;5114308;28;20067;-75
2022/07/23 03:57:59;;;;;;;12.00;9.27;;;;;;;24.12;65.08;101128.34;5120069;28;20067;-74
2022/07/23 04:00:25;;;;;;;11.30;8.23;;;;;;;24.25;64.60;101122.59;5113980;28;20070;-74
2022/07/23 04:02:50;;;;;;;9.57;7.93;;;;;;;25.01;61.94;101107.59;5113903;28;20070;-74
2022/07/23 04:05:16;;;;;;;9.45;8.05;;;;;;;26.60;57.75;101126.69;5113778;28;20035;-74
2022/07/23 04:07:41;;;;;;;10.10;7.25;;;;;;;27.86;53.50;101125.88;5114048;27;20031;-74
2022/07/23 04:10:07;;;;;;;11.30;8.55;;;;;;;28.79;51.03;101134.00;5114072;28;20123;-73
2022/07/23 04:12:33;;;;;;;11.95;9.07;;;;;;;29.45;47.96;101134.75;5120297;28;20043;-75
2022/07/23 04:14:58;;;;;;;12.15;7.63;;;;;;;29.64;45.68;101114.94;5113777;28;20072;-75
2022/07/23 04:17:25;;;;;;;11.80;7.60;;;;;;;29.79;45.65;101137.66;5113612;28;20046;-75
2022/07/23 04:19:50;;;;;;;10.38;8.85;;;;;;;29.98;45.26;101123.25;5113213;28;20032;-76
2022/07/23 04:22:16;;;;;;;9.32;8.13;;;;;;;30.25;44.44;101117.34;5113055;28;20046;-74
2022/07/23 04:24:41;;;;;;;12.73;7.80;;;;;;;30.45;44.21;101111.72;5113702;28;20031;-73
2022/07/23 04:27:07;;;;;;;14.70;8.82;;;;;;;30.60;44.01;101113.50;5117619;28;20160;-74
2022/07/23 04:29:32;;;;;;;10.85;9.20;;;;;;;30.58;43.73;101115.72;5113167;28;20143;-75
2022/07/23 04:31:58;;;;;;;10.30;9.30;;;;;;;30.37;43.79;101102.16;5113396;28;20027;-76
2022/07/23 04:34:25;;;;;;;12.07;9.20;;;;;;;30.46;43.94;101097.69;5113160;28;20032;-74
2022/07/23 04:36:51;;;;;;;11.57;9.13;;;;;;;30.70;43.13;101083.22;5113320;28;20055;-74
2022/07/23 04:39:17;;;;;;;11.38;8.80;;;;;;;30.57;42.97;101061.88;5111972;28;20180;-74
2022/07/23 04:41:42;;;;;;;14.15;9.68;;;;;;;30.60;43.23;101086.88;5115607;28;20073;-73
2022/07/23 04:44:08;;;;;;;13.07;7.95;;;;;;;30.49;43.24;101090.78;5115546;27;20476;-74
2022/07/23 04:46:33;;;;;;;14.25;8.85;;;;;;;30.53;43.58;101098.16;5113219;28;20031;-74
2022/07/23 04:48:59;;;;;;;13.38;8.68;;;;;;;30.63;43.25;101085.47;5113048;28;20070;-75
2022/07/23 04:51:24;;;;;;;10.32;9.25;;;;;;;30.84;42.58;101078.69;5113207;28;20126;-75
2022/07/23 04:53:50;;;;;;;13.18;9.63;;;;;;;31.00;42.74;101073.84;5113330;28;20466;-75
2022/07/23 04:56:15;;;;;;;10.68;9.55;;;;;;;31.03;42.57;101065.84;5113837;28;20482;-74
2022/07/23 04:58:41;;;;;;;11.90;8.63;;;;;;;31.16;42.09;101071.75;5117181;28;20038;-74
2022/07/23 05:01:07;;;;;;;13.35;9.07;;;;;;;31.23;42.18;101073.09;5113013;28;20027;-74
2022/07/23 05:03:32;;;;;;;12.57;9.02;;;;;;;31.11;42.03;101070.69;5112547;28;20023;-76
2022/07/23 05:05:58;;;;;;;9.90;8.90;;;;;;;30.88;42.29;101035.72;5112977;28;20411;-74
2022/07/23 05:08:23;;;;;;;11.40;10.10;;;;;;;31.01;42.20;101051.56;5112932;28;20394;-74
2022/07/23 05:10:49;;;;;;;13.32;8.32;;;;;;;30.68;42.62;101046.97;5116692;28;20073;-74
2022/07/23 05:13:16;;;;;;;14.43;9.15;;;;;;;30.28;43.52;101051.66;5119101;28;20400;-76
2022/07/23 05:15:42;;;;;;;11.38;8.40;;;;;;;29.98;44.25;101055.44;5112735;28;20039;-74
2022/07/23 05:18:08;;;;;;;11.90;8.20;;;;;;;29.58;45.26;101049.09;5112172;27;20028;-76
2022/07/23 05:20:33;;;;;;;16.02;8.90;;;;;;;29.26;46.34;101038.50;5112357;28;20058;-76
2022/07/23 05:22:59;;;;;;;11.40;9.23;;;;;;;28.83;46.93;101036.41;5111007;28;20043;-75
2022/07/23 05:25:25;;;;;;;13.05;8.95;;;;;;;27.83;49.47;101044.31;5111311;28;20036;-77
2022/07/23 05:27:50;;;;;;;11.27;8.25;;;;;;;26.79;52.86;101035.88;5114814;28;20023;-76
2022/07/23 05:30:16;;;;;;;10.10;8.48;;;;;;;26.18;55.39;101038.09;5112634;28;20437;-78
2022/07/23 05:32:41;;;;;;;10.90;7.50;;;;;;;25.80;56.29;101038.28;5112162;28;20402;-75
2022/07/23 05:35:07;;;;;;;10.00;7.95;;;;;;;25.66;57.33;101037.00;5112544;28;20035;-75
2022/07/23 05:40:24;;;;;;;10.63;8.65;;;;;;;25.32;58.68;101031.69;5112735;28;20415;-74
2022/07/23 05:42:49;;;;;;;14.93;7.95;;;;;;;25.24;59.49;101023.97;5113013;28;20046;-76
2022/07/23 05:45:15;;;;;;;16.17;8.57;;;;;;;25.16;59.35;101027.13;5112418;28;20083;-75
2022/07/23 05:47:46;;;;;;;10.55;8.52;;;;;;;25.09;60.04;101026.47;5111572;28;20035;-75
2022/07/23 05:50:12;;;;;;;12.85;8.40;;;;;;;25.00;60.55;101016.03;5112514;28;20035;-75
2022/07/23 05:52:39;;;;;;;13.27;8.40;;;;;;;24.91;60.43;101009.34;5113180;28;20032;-75
2022/07/23 05:55:05;;;;;;;15.48;8.98;;;;;;;24.95;61.13;101015.94;5124339;28;20261;-74
2022/07/23 05:57:31;;;;;;;11.15;8.75;;;;;;;25.01;61.36;100998.59;5121681;28;20036;-75
2022/07/23 05:59:56;;;;;;;13.30;8.57;;;;;;;25.11;61.57;101008.78;5125411;28;20044;-75
2022/07/23 06:02:22;;;;;;;13.18;9.38;;;;;;;25.21;62.07;101005.41;5118255;28;20034;-74
2022/07/23 06:04:47;;;;;;;16.80;8.52;;;;;;;25.26;60.83;100998.09;5113122;28;20067;-75
2022/07/23 06:07:13;;;;;;;14.77;8.30;;;;;;;25.28;60.51;101003.28;5112296;28;20065;-74
2022/07/23 06:09:38;;;;;;;11.77;8.07;;;;;;;25.23;60.68;100995.88;5112940;28;20039;-74
2022/07/23 06:12:07;;;;;;;10.70;7.68;;;;;;;25.25;61.18;100993.72;5115166;28;20043;-76
2022/07/23 06:14:33;;;;;;;10.48;8.10;;;;;;;25.28;61.49;100997.84;5117702;28;20106;-75
2022/07/23 06:17:00;;;;;;;10.52;7.97;;;;;;;25.26;60.49;101003.56;5062829;28;20063;-81
2022/07/23 06:19:26;;;;;;;11.63;9.02;;;;;;;25.28;61.10;101004.13;5113425;28;20032;-75
2022/07/23 06:21:52;;;;;;;9.55;7.72;;;;;;;25.32;61.20;100991.63;5111240;28;20042;-74
2022/07/23 06:24:17;;;;;;;22.88;10.07;;;;;;;25.33;60.55;100981.53;5111043;28;20447;-75
2022/07/23 06:26:43;;;;;;;16.60;10.18;;;;;;;25.42;60.27;100988.19;5112715;28;20084;-74
2022/07/23 06:29:09;;;;;;;16.58;8.27;;;;;;;25.45;60.94;100981.41;5114723;28;20056;-72
2022/07/23 06:31:34;;;;;;;17.25;8.70;;;;;;;25.47;61.10;100966.44;5110937;28;20278;-74
2022/07/23 06:34:00;;;;;;;15.93;8.52;;;;;;;25.59;60.12;100971.75;5112243;28;20024;-74
2022/07/23 06:36:27;;;;;;;76.32;13.07;;;;;;;25.60;60.14;100979.66;5110801;28;20535;-74
2022/07/23 06:38:56;;;;;;;28.38;9.00;;;;;;;25.60;59.49;100976.13;5111974;28;20043;-73
2022/07/23 06:41:22;;;;;;;17.58;9.77;;;;;;;25.61;59.94;100981.31;5111888;28;20040;-71
2022/07/23 06:43:48;;;;;;;46.47;11.00;;;;;;;25.66;60.29;100971.53;5116843;28;20066;-76
2022/07/23 06:46:14;;;;;;;11.18;8.27;;;;;;;25.71;60.65;100968.88;5114118;28;20039;-75
2022/07/23 06:48:40;;;;;;;32.53;9.15;;;;;;;25.73;60.21;100966.72;5115526;28;20145;-73
2022/07/23 06:51:05;;;;;;;22.90;7.95;;;;;;;25.80;58.79;100970.91;5115635;28;20066;-76
2022/07/23 06:53:31;;;;;;;11.90;7.50;;;;;;;25.83;58.42;100967.66;5115722;28;20176;-78
2022/07/23 06:55:56;;;;;;;15.32;8.98;;;;;;;25.85;57.51;100959.22;5115574;28;20399;-75
2022/07/23 06:58:22;;;;;;;18.05;13.13;;;;;;;25.62;57.75;100911.22;5119419;28;20039;-75
2022/07/23 07:00:47;;;;;;;8.98;6.93;;;;;;;25.99;56.83;100951.41;5115436;28;20043;-73
2022/07/23 07:03:13;;;;;;;11.43;6.57;;;;;;;25.99;57.37;100946.75;5115007;28;20032;-73
2022/07/23 07:05:41;;;;;;;15.43;7.03;;;;;;;26.08;56.90;100953.41;5115683;28;20039;-75
2022/07/23 07:08:07;;;;;;;16.88;6.80;;;;;;;26.07;57.01;100949.03;5115205;28;20023;-73
2022/07/23 07:10:32;;;;;;;16.70;7.88;;;;;;;26.11;56.94;100944.69;5115158;28;20115;-73
2022/07/23 07:13:00;;;;;;;33.53;8.70;;;;;;;26.15;56.52;100953.19;5114165;28;20034;-75
2022/07/23 07:15:26;;;;;;;14.27;7.13;;;;;;;26.17;56.21;100949.09;5114946;28;20038;-73
2022/07/23 07:17:51;;;;;;;14.50;6.95;;;;;;;26.19;56.35;100941.47;5114887;28;20118;-77
2022/07/23 07:20:17;;;;;;;20.27;6.93;;;;;;;26.21;55.35;100946.66;5114906;28;20032;-75
2022/07/23 07:22:42;;;;;;;20.60;7.95;;;;;;;26.23;54.94;100939.03;5114649;28;20032;-74
2022/07/23 07:25:11;;;;;;;12.10;5.68;;;;;;;26.25;55.81;100948.63;5114684;28;20027;-73
2022/07/23 07:27:36;;;;;;;37.95;8.70;;;;;;;26.31;55.13;100951.38;5114786;27;20040;-71
2022/07/23 07:30:04;;;;;;;12.35;6.03;;;;;;;26.36;55.01;100938.63;5114931;28;20036;-73
2022/07/23 07:32:32;;;;;;;12.90;6.60;;;;;;;26.44;55.10;100945.50;5114727;28;20035;-73
2022/07/23 07:34:58;;;;;;;;;;;;;;;26.58;55.00;100948.56;5115000;28;20108;-75
2022/07/23 07:37:24;;;;;;;15.00;6.05;;;;;;;26.80;52.09;100952.00;5114085;28;20371;-74
2022/07/23 07:39:50;;;;;;;13.63;6.43;;;;;;;26.94;51.49;100949.63;5114688;28;20043;-74
2022/07/23 07:42:15;;;;;;;8.43;5.93;;;;;;;26.99;51.35;100938.72;5115294;28;20032;-71
2022/07/23 07:44:40;;;;;;;15.82;6.82;;;;;;;26.98;51.99;100939.78;5114803;28;20063;-75
2022/07/23 07:47:06;;;;;;;16.92;5.57;;;;;;;26.84;51.83;100934.78;5114470;28;20027;-75
2022/07/23 07:49:34;;;;;;;12.52;6.00;;;;;;;26.86;52.06;100940.81;5113191;28;20074;-74
2022/07/23 07:52:00;;;;;;;22.00;6.10;;;;;;;26.84;52.50;100945.72;5114742;28;20084;-78
2022/07/23 07:54:27;;;;;;;17.38;7.00;;;;;;;26.81;52.85;100946.25;5113379;27;20075;-76
2022/07/23 07:56:52;;;;;;;30.25;7.15;;;;;;;26.70;52.89;100925.44;5116100;28;20066;-74
2022/07/23 07:59:17;;;;;;;14.77;6.05;;;;;;;26.75;53.43;100930.94;5119556;28;20028;-76
2022/07/23 08:01:43;;;;;;;7.60;5.40;;;;;;;26.77;53.54;100928.75;5114194;28;20575;-79
2022/07/23 08:04:08;;;;;;;24.55;7.20;;;;;;;26.86;53.99;100931.78;5112828;28;20038;-78
2022/07/23 08:06:34;;;;;;;22.13;7.13;;;;;;;26.91;52.74;100945.50;5114991;28;20066;-74
2022/07/23 08:09:02;;;;;;;16.05;5.90;;;;;;;26.93;52.91;100943.31;5113768;28;20031;-79
2022/07/23 08:11:30;;;;;;;;;;;;;;;26.99;53.09;100944.19;5114748;28;20044;-75
2022/07/23 08:13:58;;;;;;;;;;;;;;;27.03;52.94;100953.50;5120650;28;19915;-75
2022/07/23 08:16:23;;;;;;;;;;;;;;;27.03;53.24;100953.50;5114679;28;20079;-81
2022/07/23 08:18:58;;;;;;;20.55;7.32;;;;;;;26.81;53.25;100918.09;5111786;28;20064;-78
2022/07/23 08:21:30;;;;;;;16.60;7.65;;;;;;;26.98;53.57;100939.78;5112577;28;20050;-76
2022/07/23 08:23:56;;;;;;;12.38;5.68;;;;;;;27.05;53.42;100940.38;5114048;28;20032;-75
2022/07/23 08:26:21;;;;;;;14.55;5.80;;;;;;;27.06;53.81;100942.03;5114315;28;20055;-74
2022/07/23 08:28:47;;;;;;;10.38;6.95;;;;;;;27.12;53.92;100940.94;5115316;28;20027;-73
2022/07/23 08:31:12;;;;;;;10.25;5.88;;;;;;;27.19;53.26;100936.06;5112260;28;20032;-72
2022/07/23 08:33:38;;;;;;;13.57;6.38;;;;;;;27.24;53.08;100929.78;5112942;28;20036;-77
2022/07/23 08:36:05;;;;;;;14.73;6.55;;;;;;;27.27;53.02;100930.06;5111971;28;20079;-77
2022/07/23 08:38:33;;;;;;;8.75;5.88;;;;;;;27.21;53.21;100928.41;5112226;28;20039;-76
2022/07/23 08:41:02;;;;;;;13.98;5.93;;;;;;;27.20;54.02;100932.25;5111677;28;20437;-80
2022/07/23 08:43:32;;;;;;;14.98;6.40;;;;;;;27.19;53.39;100925.13;5112186;28;20035;-72
2022/07/23 08:46:00;;;;;;;11.85;6.18;;;;;;;27.13;53.81;100918.81;5095376;28;20036;-74
2022/07/23 08:48:29;;;;;;;9.88;5.78;;;;;;;27.20;53.77;100929.50;5113870;28;20114;-73
2022/07/23 08:50:57;;;;;;;9.93;6.32;;;;;;;27.20;53.73;100921.31;5115190;28;20040;-75
2022/07/23 08:53:25;;;;;;;10.82;6.28;;;;;;;27.12;53.94;100898.03;5122570;28;20031;-75
2022/07/23 08:56:02;;;;;;;13.90;6.45;;;;;;;27.13;53.65;100891.47;5136876;28;20039;-81
2022/07/23 08:58:28;;;;;;;13.57;7.75;;;;;;;27.22;54.03;100889.06;5134079;28;20046;-73
2022/07/23 09:00:54;;;;;;;7.55;5.30;;;;;;;27.43;53.58;100918.06;5136059;28;20040;-74
2022/07/23 09:03:22;;;;;;;13.07;6.60;;;;;;;27.51;53.02;100921.38;5132031;28;20077;-74
2022/07/23 09:05:50;;;;;;;9.55;5.43;;;;;;;27.57;52.85;100928.50;5112998;28;20039;-74
2022/07/23 09:08:19;;;;;;;12.65;6.68;;;;;;;27.62;53.00;100936.72;5112633;28;20096;-74
2022/07/23 09:10:58;;;;;;;9.90;6.00;;;;;;;27.68;52.37;100911.84;5113945;28;20036;-72
2022/07/23 09:13:25;;;;;;;14.65;6.15;;;;;;;27.92;52.05;100927.72;5121746;28;20053;-76
2022/07/23 09:15:52;;;;;;;8.50;5.57;;;;;;;27.95;51.97;100919.78;5111164;28;20032;-75
2022/07/23 09:18:18;;;;;;;8.97;6.47;;;;;;;27.89;51.82;100912.66;5112672;28;20087;-74
2022/07/23 09:20:44;;;;;;;20.45;6.53;;;;;;;27.76;52.63;100924.19;5111300;28;20028;-77
2022/07/23 09:23:09;;;;;;;7.72;5.75;;;;;;;27.66;51.77;100918.69;5112796;28;20042;-76
2022/07/23 09:25:35;;;;;;;11.57;6.10;;;;;;;27.62;51.75;100909.38;5112385;28;20065;-74
2022/07/23 09:28:02;;;;;;;10.05;5.45;;;;;;;27.72;51.22;100917.59;5116381;28;20050;-74
2022/07/23 09:30:32;;;;;;;6.20;4.65;;;;;;;27.80;50.80;100908.84;5113721;28;20024;-75
2022/07/23 09:33:06;;;;;;;5.65;4.70;;;;;;;27.86;51.59;100912.41;5111557;28;20028;-75
2022/07/23 09:35:51;;;;;;;11.93;7.32;;;;;;;27.90;51.81;100899.81;5111040;28;20087;-73
2022/07/23 09:38:18;;;;;;;9.68;6.15;;;;;;;27.86;50.95;100907.75;5112000;28;20052;-73
2022/07/23 09:40:45;;;;;;;13.57;5.97;;;;;;;27.80;51.47;100908.03;5112096;28;20048;-71
2022/07/23 09:43:11;;;;;;;10.60;5.07;;;;;;;27.80;51.27;100902.56;5095076;28;20040;-70
2022/07/23 09:45:39;;;;;;;16.13;5.35;;;;;;;27.84;50.23;100903.66;5112942;28;20035;-74
2022/07/23 09:48:12;;;;;;;8.57;5.45;;;;;;;27.67;50.68;100904.72;5112411;28;20042;-73
2022/07/23 09:50:38;;;;;;;8.35;5.05;;;;;;;27.54;51.49;100904.41;5112375;28;20039;-71
2022/07/23 09:53:04;;;;;;;8.43;4.65;;;;;;;27.51;51.39;100900.31;5111087;28;20027;-73
2022/07/23 09:55:38;;;;;;;11.77;5.53;;;;;;;27.49;51.07;100890.75;5112003;28;20142;-72
2022/07/23 09:58:12;;;;;;;7.78;4.90;;;;;;;27.67;50.39;100893.78;5112448;28;20047;-72
2022/07/23 10:00:38;;;;;;;6.13;5.20;;;;;;;27.81;49.76;100888.59;5112445;28;20027;-75
2022/07/23 10:03:06;;;;;;;8.15;4.70;;;;;;;27.82;49.81;100879.28;5112413;28;20410;-74
2022/07/23 10:05:34;;;;;;;8.98;5.50;;;;;;;27.84;49.27;100868.88;5111985;28;20517;-74
2022/07/23 10:08:02;;;;;;;8.15;5.18;;;;;;;27.90;49.14;100876.00;5112328;28;20114;-72
2022/07/23 10:10:29;;;;;;;7.60;4.78;;;;;;;28.00;49.23;100881.44;5112441;28;20486;-74
2022/07/23 10:15:41;;;;;;;9.88;5.22;;;;;;;28.06;48.21;100855.72;5113273;28;20036;-77
2022/07/23 10:18:09;;;;;;;14.32;5.38;;;;;;;28.19;49.55;100873.50;5112020;28;20062;-78
2022/07/23 10:20:35;;;;;;;11.93;5.18;;;;;;;28.11;49.07;100865.84;5116035;28;20131;-77
2022/07/23 10:23:22;;;;;;;7.32;5.28;;;;;;;28.11;48.94;100870.50;5116192;28;20071;-76
2022/07/23 10:26:19;;;;;;;9.70;5.13;;;;;;;28.19;48.63;100873.50;5115872;28;20390;-75
2022/07/23 10:29:03;;;;;;;;;;;;;;;28.31;48.85;100862.25;5117181;28;20115;-74
2022/07/23 10:31:54;;;;;;;8.07;4.25;;;;;;;28.29;47.98;100861.72;5114715;28;20369;-74
2022/07/23 10:34:33;;;;;;;9.77;5.20;;;;;;;28.29;47.51;100858.97;5115619;28;20043;-75
2022/07/23 10:37:25;;;;;;;8.30;5.07;;;;;;;28.44;47.66;100867.16;5115296;28;20087;-75
2022/07/23 10:40:20;;;;;;;8.15;5.32;;;;;;;28.29;47.52;100861.72;5116164;28;20040;-77
2022/07/23 10:42:46;;;;;;;13.73;5.93;;;;;;;28.17;47.61;100869.38;5115653;28;20447;-73
2022/07/23 10:45:37;;;;;;;8.45;5.93;;;;;;;28.30;48.03;100868.81;5115486;28;20032;-74
2022/07/23 10:48:14;;;;;;;10.82;5.53;;;;;;;28.45;47.42;100860.59;5105639;28;20130;-73
2022/07/23 10:50:41;;;;;;;7.88;5.38;;;;;;;28.59;46.78;100869.84;5115479;28;20455;-72
2022/07/23 10:53:11;;;;;;;11.30;5.25;;;;;;;28.54;47.00;100875.34;5115358;28;20039;-74
2022/07/23 10:55:36;;;;;;;10.25;4.97;;;;;;;28.63;46.85;100884.63;5115296;28;20389;-74
2022/07/23 10:58:04;;;;;;;6.65;4.70;;;;;;;28.74;46.45;100868.16;5115632;28;20035;-74
2022/07/23 11:00:31;;;;;;;;;;;;;;;28.89;46.23;100877.13;5115791;28;20423;-77
2022/07/23 11:03:24;;;;;;;11.50;4.82;;;;;;;28.85;46.03;100875.25;5115555;28;20410;-74
2022/07/23 11:05:50;;;;;;;11.27;4.78;;;;;;;28.75;46.05;100867.03;5115154;28;20035;-74
2022/07/23 11:08:19;;;;;;;30.30;7.72;;;;;;;28.54;46.07;100878.06;5114968;28;20031;-80
2022/07/23 11:10:54;;;;;;;8.90;5.10;;;;;;;28.40;46.04;100877.03;5115625;28;20059;-76
2022/07/23 11:13:28;;;;;;;23.48;6.22;;;;;;;28.22;46.82;100885.81;5117463;28;20040;-76
2022/07/23 11:16:06;;;;;;;9.90;4.95;;;;;;;28.01;48.11;100915.94;5115486;28;20032;-77
2022/07/23 11:18:43;;;;;;;60.03;11.38;;;;;;;27.57;53.17;100912.91;5115285;28;20123;-76
2022/07/23 11:21:21;;;;;;;68.00;11.60;;;;;;;26.98;54.90;100917.91;5115009;28;20039;-76
2022/07/23 11:23:56;;;;;;;;;;;;;;;26.72;55.31;100909.59;5115244;28;20035;-78
2022/07/23 11:26:40;;;;;;;34.55;7.75;;;;;;;26.42;56.26;100920.38;5115017;28;19916;-80